createdAt,value
2022-12-11T00:00:05.022Z,-3.08
2022-12-11T00:02:31.412Z,-3.04
2022-12-11T00:04:57.896Z,-3.09
2022-12-11T00:07:24.295Z,-2.94
2022-12-11T00:09:50.674Z,-2.95
2022-12-11T00:12:17.031Z,-3.03
2022-12-11T00:14:43.381Z,-2.99
2022-12-11T00:17:10.089Z,-2.97
2022-12-11T00:19:36.571Z,-2.88
2022-12-11T00:22:03.239Z,-2.79
2022-12-11T00:24:29.615Z,-2.82
2022-12-11T00:26:56.023Z,-2.69
2022-12-11T00:29:22.381Z,-2.75
2022-12-11T00:31:48.777Z,-2.81
2022-12-11T00:34:15.195Z,-2.79
2022-12-11T00:36:41.611Z,-2.85
2022-12-11T00:39:08.064Z,-2.85
2022-12-11T00:41:34.619Z,-2.91
2022-12-11T00:44:01.037Z,-2.86
2022-12-11T00:46:27.550Z,-2.83
2022-12-11T00:48:53.971Z,-2.83
2022-12-11T00:51:20.432Z,-2.82
2022-12-11T00:53:47.025Z,-2.87
2022-12-11T00:56:19.547Z,-2.85
2022-12-11T00:58:47.235Z,-2.78
2022-12-11T01:01:16.652Z,-2.75
2022-12-11T01:03:43.459Z,-2.73
2022-12-11T01:06:15.323Z,-2.75
2022-12-11T01:08:42.499Z,-2.67
2022-12-11T01:11:11.369Z,-2.55
2022-12-11T01:13:38.972Z,-2.58
2022-12-11T01:16:11.294Z,-2.61
2022-12-11T01:18:38.594Z,-2.54
2022-12-11T01:21:09.800Z,-2.69
2022-12-11T01:23:36.715Z,-2.59
2022-12-11T01:26:11.379Z,-2.59
2022-12-11T01:28:38.353Z,-2.61
2022-12-11T01:31:10.044Z,-2.59
2022-12-11T01:33:37.009Z,-2.72
2022-12-11T01:36:22.889Z,-2.68
2022-12-11T01:38:49.788Z,-2.79
2022-12-11T01:41:18.104Z,-2.89
2022-12-11T01:44:02.932Z,-3.08
2022-12-11T01:46:30.974Z,-3.23
2022-12-11T01:48:58.987Z,-3.27
2022-12-11T01:51:26.915Z,-3.19
2022-12-11T01:53:58.808Z,-3.22
2022-12-11T01:56:25.420Z,-3.19
2022-12-11T01:58:55.115Z,-3.24
2022-12-11T02:01:36.715Z,-3.28
2022-12-11T02:04:04.282Z,-3.33
2022-12-11T02:06:33.996Z,-3.25
2022-12-11T02:09:01.555Z,-3.25
2022-12-11T02:11:57.957Z,-3.23
2022-12-11T02:14:43.522Z,-3.24
2022-12-11T02:17:19.537Z,-3.23
2022-12-11T02:20:01.535Z,-3.28
2022-12-11T02:22:47.801Z,-3.19
2022-12-11T02:25:41.006Z,-3.31
2022-12-11T02:28:34.867Z,-3.30
2022-12-11T02:31:10.584Z,-3.34
2022-12-11T02:33:43.694Z,-3.43
2022-12-11T02:36:10.658Z,-3.33
2022-12-11T02:38:41.692Z,-3.34
2022-12-11T02:41:11.445Z,-3.21
2022-12-11T02:43:39.484Z,-3.16
2022-12-11T02:46:08.032Z,-3.28
2022-12-11T02:48:36.770Z,-3.34
2022-12-11T02:51:06.197Z,-3.34
2022-12-11T02:53:35.500Z,-3.38
2022-12-11T02:56:26.776Z,-3.40
2022-12-11T02:59:02.939Z,-3.45
2022-12-11T03:01:29.351Z,-3.46
2022-12-11T03:03:56.486Z,-3.42
2022-12-11T03:06:32.296Z,-3.38
2022-12-11T03:08:58.791Z,-3.35
2022-12-11T03:11:25.205Z,-3.40
2022-12-11T03:13:53.722Z,-3.24
2022-12-11T03:16:38.872Z,-3.21
2022-12-11T03:19:26.638Z,-3.00
2022-12-11T03:22:22.612Z,-2.87
2022-12-11T03:24:55.004Z,-2.92
2022-12-11T03:27:33.058Z,-2.87
2022-12-11T03:30:05.682Z,-2.89
2022-12-11T03:32:44.502Z,-2.91
2022-12-11T03:35:21.492Z,-2.84
2022-12-11T03:37:49.594Z,-2.96
2022-12-11T03:40:19.224Z,-2.87
2022-12-11T03:42:49.627Z,-2.79
2022-12-11T03:45:18.661Z,-2.73
2022-12-11T03:47:47.300Z,-2.68
2022-12-11T03:50:18.108Z,-2.68
2022-12-11T03:52:46.535Z,-2.69
2022-12-11T03:55:15.104Z,-2.66
2022-12-11T03:57:41.616Z,-2.71
2022-12-11T04:00:12.762Z,-2.68
2022-12-11T04:02:39.845Z,-2.59
2022-12-11T04:05:06.798Z,-2.66
2022-12-11T04:07:33.208Z,-2.75
2022-12-11T04:10:00.358Z,-2.62
2022-12-11T04:12:26.829Z,-2.65
2022-12-11T04:15:02.343Z,-2.64
2022-12-11T04:17:52.908Z,-2.76
2022-12-11T04:20:38.620Z,-2.75
2022-12-11T04:23:33.140Z,-2.76
2022-12-11T04:26:11.604Z,-2.72
2022-12-11T04:28:39.363Z,-2.75
2022-12-11T04:31:06.222Z,-2.74
2022-12-11T04:33:32.654Z,-2.72
2022-12-11T04:36:00.726Z,-2.79
2022-12-11T04:38:27.721Z,-2.81
2022-12-11T04:41:01.716Z,-2.77
2022-12-11T04:43:28.546Z,-2.75
2022-12-11T04:46:05.991Z,-2.75
2022-12-11T04:48:32.734Z,-2.71
2022-12-11T04:50:59.266Z,-2.68
2022-12-11T04:53:26.631Z,-2.68
2022-12-11T04:55:53.104Z,-2.67
2022-12-11T04:58:19.450Z,-2.73
2022-12-11T05:00:46.414Z,-2.70
2022-12-11T05:03:12.996Z,-2.63
2022-12-11T05:05:39.637Z,-2.68
2022-12-11T05:08:06.177Z,-2.63
2022-12-11T05:10:32.591Z,-2.68
2022-12-11T05:12:58.962Z,-2.73
2022-12-11T05:15:25.330Z,-2.56
2022-12-11T05:17:51.686Z,-2.58
2022-12-11T05:20:18.158Z,-2.63
2022-12-11T05:22:44.510Z,-2.65
2022-12-11T05:25:11.210Z,-2.64
2022-12-11T05:27:37.841Z,-2.75
2022-12-11T05:30:04.732Z,-2.71
2022-12-11T05:32:31.128Z,-2.80
2022-12-11T05:34:57.772Z,-2.80
2022-12-11T05:37:24.231Z,-2.79
2022-12-11T05:39:50.588Z,-2.78
2022-12-11T05:42:16.921Z,-2.69
2022-12-11T05:44:43.319Z,-2.76
2022-12-11T05:47:09.667Z,-2.74
2022-12-11T05:49:36.155Z,-2.68
2022-12-11T05:52:02.516Z,-2.68
2022-12-11T05:54:28.871Z,-2.64
2022-12-11T05:56:55.273Z,-2.66
2022-12-11T05:59:21.620Z,-2.74
2022-12-11T06:01:48.093Z,-2.69
2022-12-11T06:04:14.624Z,-2.79
2022-12-11T06:06:41.317Z,-2.71
2022-12-11T06:09:07.940Z,-2.77
2022-12-11T06:11:34.871Z,-2.71
2022-12-11T06:14:02.972Z,-2.81
2022-12-11T06:16:29.437Z,-2.71
2022-12-11T06:18:58.468Z,-2.76
2022-12-11T06:21:29.875Z,-2.59
2022-12-11T06:23:58.595Z,-2.59
2022-12-11T06:26:25.927Z,-2.62
2022-12-11T06:28:52.682Z,-2.56
2022-12-11T06:31:20.183Z,-2.61
2022-12-11T06:33:47.561Z,-2.58
2022-12-11T06:36:17.090Z,-2.62
2022-12-11T06:38:44.245Z,-2.73
2022-12-11T06:41:11.234Z,-2.55
2022-12-11T06:43:40.086Z,-2.53
2022-12-11T06:46:09.218Z,-2.54
2022-12-11T06:48:35.918Z,-2.56
2022-12-11T06:51:10.181Z,-2.62
2022-12-11T06:53:36.903Z,-2.66
2022-12-11T06:56:09.348Z,-2.40
2022-12-11T06:58:37.107Z,-2.56
2022-12-11T07:01:04.885Z,-2.53
2022-12-11T07:03:31.438Z,-2.55
2022-12-11T07:06:02.367Z,-2.48
2022-12-11T07:08:29.645Z,-2.51
2022-12-11T07:11:02.663Z,-2.52
2022-12-11T07:13:29.007Z,-2.56
2022-12-11T07:15:55.359Z,-2.53
2022-12-11T07:18:21.696Z,-2.52
2022-12-11T07:20:48.052Z,-2.56
2022-12-11T07:23:14.383Z,-2.60
2022-12-11T07:25:40.739Z,-2.52
2022-12-11T07:28:09.113Z,-2.57
2022-12-11T07:30:38.289Z,-2.46
2022-12-11T07:33:05.721Z,-2.47
2022-12-11T07:35:34.862Z,-2.39
2022-12-11T07:38:01.344Z,-2.51
2022-12-11T07:40:27.764Z,-2.41
2022-12-11T07:42:54.192Z,-2.46
2022-12-11T07:45:20.593Z,-2.46
2022-12-11T07:47:46.953Z,-2.53
2022-12-11T07:50:13.344Z,-2.45
2022-12-11T07:52:39.687Z,-2.62
2022-12-11T07:55:06.161Z,-2.59
2022-12-11T07:57:32.512Z,-2.52
2022-12-11T07:59:58.854Z,-2.55
2022-12-11T08:02:25.282Z,-2.49
2022-12-11T08:04:51.746Z,-2.55
2022-12-11T08:07:18.080Z,-2.64
2022-12-11T08:09:44.453Z,-2.73
2022-12-11T08:12:11.918Z,-2.65
2022-12-11T08:14:38.259Z,-2.55
2022-12-11T08:17:04.919Z,-2.51
2022-12-11T08:19:31.327Z,-2.57
2022-12-11T08:21:57.733Z,-2.55
2022-12-11T08:24:24.080Z,-2.62
2022-12-11T08:26:50.456Z,-2.53
2022-12-11T08:29:16.993Z,-2.61
2022-12-11T08:31:43.415Z,-2.57
2022-12-11T08:34:13.696Z,-2.59
2022-12-11T08:36:40.189Z,-2.53
2022-12-11T08:39:06.669Z,-2.57
2022-12-11T08:41:33.035Z,-2.60
2022-12-11T08:44:00.382Z,-2.60
2022-12-11T08:46:30.761Z,-2.65
2022-12-11T08:48:58.656Z,-2.58
2022-12-11T08:51:27.109Z,-2.42
2022-12-11T08:53:58.230Z,-2.39
2022-12-11T08:56:25.233Z,-2.35
2022-12-11T08:58:52.483Z,-2.39
2022-12-11T09:01:21.776Z,-2.28
2022-12-11T09:03:49.056Z,-2.24
2022-12-11T09:06:18.142Z,-2.24
2022-12-11T09:08:51.895Z,-2.16
2022-12-11T09:11:21.939Z,-2.16
2022-12-11T09:13:48.816Z,-2.18
2022-12-11T09:16:19.700Z,-2.11
2022-12-11T09:18:47.873Z,-2.13
2022-12-11T09:21:16.939Z,-2.12
2022-12-11T09:23:43.656Z,-2.07
2022-12-11T09:26:16.121Z,-1.99
2022-12-11T09:28:46.737Z,-1.94
2022-12-11T09:31:23.512Z,-1.97
2022-12-11T09:33:52.016Z,-1.88
2022-12-11T09:36:18.940Z,-1.92
2022-12-11T09:38:46.371Z,-1.93
2022-12-11T09:41:21.906Z,-1.91
2022-12-11T09:44:13.111Z,-1.91
2022-12-11T09:46:40.774Z,-1.91
2022-12-11T09:49:20.859Z,-1.88
2022-12-11T09:52:09.965Z,-1.90
2022-12-11T09:54:36.746Z,-1.92
2022-12-11T09:57:14.633Z,-1.69
2022-12-11T10:00:02.723Z,-1.73
2022-12-11T10:02:59.101Z,-1.60
2022-12-11T10:05:45.394Z,-1.53
2022-12-11T10:08:23.681Z,-1.51
2022-12-11T10:11:27.978Z,-1.49
2022-12-11T10:14:25.084Z,-1.55
2022-12-11T10:17:02.517Z,-1.57
2022-12-11T10:19:31.533Z,-1.68
2022-12-11T10:22:00.039Z,-1.73
2022-12-11T10:27:39.249Z,-1.58
2022-12-11T10:30:18.655Z,-1.49
2022-12-11T10:32:44.988Z,-1.56
2022-12-11T10:35:19.966Z,-1.60
2022-12-11T10:37:46.369Z,-1.42
2022-12-11T10:40:13.648Z,-1.51
2022-12-11T10:42:44.158Z,-1.34
2022-12-11T10:45:16.225Z,-1.47
2022-12-11T10:47:42.579Z,-1.55
2022-12-11T10:50:24.922Z,-1.48
2022-12-11T10:52:52.827Z,-1.42
2022-12-11T10:55:24.361Z,-1.48
2022-12-11T10:58:05.701Z,-1.44
2022-12-11T11:00:37.455Z,-1.34
2022-12-11T11:03:07.782Z,-1.49
2022-12-11T11:05:36.395Z,-1.46
2022-12-11T11:08:16.004Z,-1.40
2022-12-11T11:10:55.791Z,-1.41
2022-12-11T11:13:27.794Z,-1.35
2022-12-11T11:16:13.020Z,-1.41
2022-12-11T11:18:41.371Z,-1.44
2022-12-11T11:21:17.609Z,-1.50
2022-12-11T11:23:47.281Z,-1.37
2022-12-11T11:26:15.800Z,-1.42
2022-12-11T11:28:54.656Z,-1.24
2022-12-11T11:31:32.930Z,-1.32
2022-12-11T11:34:06.595Z,-1.27
2022-12-11T11:36:35.896Z,-1.29
2022-12-11T11:39:20.405Z,-1.36
2022-12-11T11:41:54.035Z,-1.40
2022-12-11T11:44:31.358Z,-1.40
2022-12-11T11:47:05.895Z,-1.26
2022-12-11T11:49:52.938Z,-1.26
2022-12-11T11:52:38.884Z,-1.26
2022-12-11T11:55:22.045Z,-1.36
2022-12-11T11:58:07.427Z,-1.33
2022-12-11T12:00:34.255Z,-1.37
2022-12-11T12:03:06.030Z,-1.37
2022-12-11T12:05:44.764Z,-1.39
2022-12-11T12:08:21.233Z,-1.43
2022-12-11T12:10:53.548Z,-1.34
2022-12-11T12:13:50.171Z,-1.32
2022-12-11T12:16:54.823Z,-1.30
2022-12-11T12:19:48.606Z,-1.22
2022-12-11T12:22:39.162Z,-1.28
2022-12-11T12:25:14.616Z,-1.22
2022-12-11T12:27:52.810Z,-1.19
2022-12-11T12:30:23.409Z,-1.24
2022-12-11T12:33:19.724Z,-1.26
2022-12-11T12:36:17.891Z,-1.28
2022-12-11T12:39:13.385Z,-1.37
2022-12-11T12:42:22.742Z,-1.38
2022-12-11T12:45:03.637Z,-1.47
2022-12-11T12:47:34.434Z,-1.40
2022-12-11T12:50:03.098Z,-1.45
2022-12-11T12:52:33.572Z,-1.46
2022-12-11T12:55:14.662Z,-1.51
2022-12-11T12:57:49.493Z,-1.37
2022-12-11T13:00:34.310Z,-1.42
2022-12-11T13:03:20.725Z,-1.50
2022-12-11T13:06:13.387Z,-1.44
2022-12-11T13:08:44.099Z,-1.47
2022-12-11T13:11:12.990Z,-1.50
2022-12-11T13:14:04.141Z,-1.54
2022-12-11T13:16:42.251Z,-1.59
2022-12-11T13:19:23.961Z,-1.45
2022-12-11T13:22:14.755Z,-1.49
2022-12-11T13:24:48.677Z,-1.51
2022-12-11T13:27:35.971Z,-1.56
2022-12-11T13:30:23.181Z,-1.60
2022-12-11T13:32:59.443Z,-1.57
2022-12-11T13:35:26.519Z,-1.62
2022-12-11T13:37:54.101Z,-1.73
2022-12-11T13:40:32.980Z,-1.65
2022-12-11T13:43:03.775Z,-1.71
2022-12-11T13:45:46.431Z,-1.77
2022-12-11T13:48:34.599Z,-1.66
2022-12-11T13:51:01.607Z,-1.78
2022-12-11T13:53:28.462Z,-1.74
2022-12-11T13:56:01.999Z,-1.66
2022-12-11T13:58:29.526Z,-1.66
2022-12-11T14:01:20.493Z,-1.66
2022-12-11T14:03:59.234Z,-1.66
2022-12-11T14:06:27.968Z,-1.74
2022-12-11T14:08:57.696Z,-1.75
2022-12-11T14:11:29.324Z,-1.76
2022-12-11T14:13:59.515Z,-1.77
2022-12-11T14:16:27.553Z,-1.78
2022-12-11T14:18:58.293Z,-1.79
2022-12-11T14:21:25.713Z,-1.77
2022-12-11T14:24:00.304Z,-1.84
2022-12-11T14:26:29.775Z,-1.92
2022-12-11T14:28:56.377Z,-1.86
2022-12-11T14:31:34.388Z,-1.76
2022-12-11T14:34:14.297Z,-1.77
2022-12-11T14:36:42.014Z,-1.87
2022-12-11T14:39:13.169Z,-1.94
2022-12-11T14:41:45.756Z,-1.87
2022-12-11T14:44:15.859Z,-1.85
2022-12-11T14:46:51.463Z,-1.80
2022-12-11T14:49:33.386Z,-1.84
2022-12-11T14:52:01.014Z,-1.88
2022-12-11T14:54:36.385Z,-1.83
2022-12-11T14:57:06.555Z,-1.89
2022-12-11T14:59:40.977Z,-1.86
2022-12-11T15:02:26.968Z,-1.90
2022-12-11T15:05:22.035Z,-1.83
2022-12-11T15:07:59.599Z,-1.82
2022-12-11T15:10:35.468Z,-1.87
2022-12-11T15:13:03.354Z,-2.03
2022-12-11T15:15:33.111Z,-1.95
2022-12-11T15:18:22.397Z,-2.01
2022-12-11T15:20:58.650Z,-2.01
2022-12-11T15:23:25.654Z,-2.10
2022-12-11T15:25:54.834Z,-2.06
2022-12-11T15:28:37.163Z,-2.07
2022-12-11T15:31:07.051Z,-2.14
2022-12-11T15:33:34.864Z,-2.01
2022-12-11T15:36:07.100Z,-1.96
2022-12-11T15:38:35.050Z,-2.00
2022-12-11T15:41:02.778Z,-1.96
2022-12-11T15:43:34.508Z,-2.02
2022-12-11T15:46:02.667Z,-2.00
2022-12-11T15:48:29.037Z,-2.05
2022-12-11T15:50:55.403Z,-2.06
2022-12-11T15:53:21.728Z,-2.03
2022-12-11T15:55:48.544Z,-2.11
2022-12-11T15:58:18.980Z,-2.18
2022-12-11T16:00:45.721Z,-2.13
2022-12-11T16:03:14.546Z,-2.19
2022-12-11T16:05:42.226Z,-2.05
2022-12-11T16:08:14.897Z,-2.07
2022-12-11T16:10:43.337Z,-2.07
2022-12-11T16:13:11.132Z,-2.05
2022-12-11T16:15:43.522Z,-2.07
2022-12-11T16:18:13.288Z,-2.07
2022-12-11T16:20:41.073Z,-2.09
2022-12-11T16:23:08.102Z,-2.07
2022-12-11T16:25:37.565Z,-2.13
2022-12-11T16:28:04.171Z,-2.13
2022-12-11T16:30:30.925Z,-2.14
2022-12-11T16:32:57.579Z,-2.00
2022-12-11T16:35:23.932Z,-2.05
2022-12-11T16:37:51.619Z,-2.02
2022-12-11T16:40:18.537Z,-2.11
2022-12-11T16:42:45.659Z,-2.06
2022-12-11T16:45:23.612Z,-2.05
2022-12-11T16:47:49.985Z,-2.12
2022-12-11T16:50:17.366Z,-2.02
2022-12-11T16:52:44.499Z,-2.07
2022-12-11T16:55:13.253Z,-2.08
2022-12-11T16:57:40.457Z,-2.10
2022-12-11T17:00:08.993Z,-2.10
2022-12-11T17:02:36.304Z,-2.06
2022-12-11T17:05:02.810Z,-2.05
2022-12-11T17:07:31.611Z,-2.06
2022-12-11T17:09:58.052Z,-2.09
2022-12-11T17:12:27.668Z,-2.15
2022-12-11T17:14:54.908Z,-2.13
2022-12-11T17:17:21.388Z,-2.12
2022-12-11T17:19:47.756Z,-2.03
2022-12-11T17:22:14.193Z,-2.04
2022-12-11T17:24:40.597Z,-2.11
2022-12-11T17:27:07.021Z,-2.14
2022-12-11T17:29:33.453Z,-2.09
2022-12-11T17:31:59.858Z,-2.10
2022-12-11T17:34:26.205Z,-2.15
2022-12-11T17:36:52.605Z,-2.07
2022-12-11T17:39:18.995Z,-2.10
2022-12-11T17:41:45.411Z,-2.11
2022-12-11T17:44:11.787Z,-2.07
2022-12-11T17:46:38.318Z,-2.08
2022-12-11T17:49:05.397Z,-2.04
2022-12-11T17:51:31.789Z,-2.04
2022-12-11T17:53:58.393Z,-2.16
2022-12-11T17:56:25.434Z,-2.12
2022-12-11T17:58:51.958Z,-2.13
2022-12-11T18:01:19.316Z,-2.12
2022-12-11T18:03:46.850Z,-2.11
2022-12-11T18:06:15.123Z,-2.17
2022-12-11T18:08:42.615Z,-2.21
2022-12-11T18:11:21.674Z,-2.16
2022-12-11T18:13:49.707Z,-2.17
2022-12-11T18:16:19.356Z,-2.27
2022-12-11T18:18:47.580Z,-2.23
2022-12-11T18:21:16.750Z,-2.26
2022-12-11T18:23:44.104Z,-2.29
2022-12-11T18:26:11.469Z,-2.32
2022-12-11T18:28:37.860Z,-2.22
2022-12-11T18:31:04.336Z,-2.29
2022-12-11T18:33:31.118Z,-2.18
2022-12-11T18:35:57.643Z,-2.27
2022-12-11T18:38:24.066Z,-2.29
2022-12-11T18:40:50.407Z,-2.23
2022-12-11T18:43:16.765Z,-2.17
2022-12-11T18:45:45.070Z,-2.21
2022-12-11T18:48:12.757Z,-2.23
2022-12-11T18:50:47.634Z,-2.16
2022-12-11T18:53:14.388Z,-2.29
2022-12-11T18:55:45.030Z,-2.24
2022-12-11T18:58:12.970Z,-2.16
2022-12-11T19:00:40.960Z,-2.19
2022-12-11T19:03:08.773Z,-2.30
2022-12-11T19:05:36.064Z,-2.21
2022-12-11T19:08:03.560Z,-2.29
2022-12-11T19:10:29.960Z,-2.32
2022-12-11T19:12:56.316Z,-2.35
2022-12-11T19:15:24.137Z,-2.30
2022-12-11T19:17:50.749Z,-2.24
2022-12-11T19:20:48.589Z,-2.30
2022-12-11T19:23:04.065Z,-2.21
2022-12-11T19:25:30.455Z,-2.23
2022-12-11T19:27:56.989Z,-2.31
2022-12-11T19:30:23.898Z,-2.26
2022-12-11T19:32:50.318Z,-2.27
2022-12-11T19:35:18.027Z,-2.27
2022-12-11T19:37:44.814Z,-2.28
2022-12-11T19:40:11.404Z,-2.20
2022-12-11T19:42:37.804Z,-2.20
2022-12-11T19:45:04.572Z,-2.19
2022-12-11T19:47:30.907Z,-2.13
2022-12-11T19:49:57.283Z,-2.15
2022-12-11T19:52:23.679Z,-2.18
2022-12-11T19:54:50.079Z,-2.19
2022-12-11T19:57:16.494Z,-2.28
2022-12-11T19:59:42.840Z,-2.27
2022-12-11T20:02:11.574Z,-2.24
2022-12-11T20:04:38.076Z,-2.15
2022-12-11T20:07:04.488Z,-2.18
2022-12-11T20:09:30.916Z,-2.18
2022-12-11T20:11:57.271Z,-2.12
2022-12-11T20:14:25.837Z,-2.21
2022-12-11T20:17:10.861Z,-2.33
2022-12-11T20:19:39.181Z,-2.29
2022-12-11T20:22:05.655Z,-2.20
2022-12-11T20:24:32.123Z,-2.25
2022-12-11T20:26:58.455Z,-2.28
2022-12-11T20:29:24.828Z,-2.22
2022-12-11T20:31:51.502Z,-2.23
2022-12-11T20:34:18.112Z,-2.32
2022-12-11T20:36:44.537Z,-2.22
2022-12-11T20:39:10.947Z,-2.29
2022-12-11T20:41:37.387Z,-2.20
2022-12-11T20:44:03.791Z,-2.28
2022-12-11T20:46:30.159Z,-2.29
2022-12-11T20:48:58.710Z,-2.27
2022-12-11T20:51:26.586Z,-2.22
2022-12-11T20:54:01.099Z,-2.25
2022-12-11T20:56:29.983Z,-2.34
2022-12-11T20:58:57.972Z,-2.39
2022-12-11T21:01:26.456Z,-2.42
2022-12-11T21:03:53.519Z,-2.36
2022-12-11T21:06:21.546Z,-2.48
2022-12-11T21:08:47.994Z,-2.38
2022-12-11T21:11:14.455Z,-2.26
2022-12-11T21:13:40.940Z,-2.21
2022-12-11T21:16:08.356Z,-2.20
2022-12-11T21:18:34.896Z,-2.24
2022-12-11T21:21:01.283Z,-2.21
2022-12-11T21:23:28.036Z,-2.24
2022-12-11T21:25:54.560Z,-2.31
2022-12-11T21:28:21.721Z,-2.25
2022-12-11T21:30:48.154Z,-2.27
2022-12-11T21:33:14.577Z,-2.26
2022-12-11T21:35:40.936Z,-2.31
2022-12-11T21:38:07.560Z,-2.32
2022-12-11T21:40:34.050Z,-2.32
2022-12-11T21:43:00.394Z,-2.39
2022-12-11T21:45:59.157Z,-2.39
2022-12-11T21:48:13.759Z,-2.34
2022-12-11T21:50:40.879Z,-2.30
2022-12-11T21:53:07.314Z,-2.39
2022-12-11T21:55:33.756Z,-2.32
2022-12-11T21:58:00.116Z,-2.43
2022-12-11T22:00:28.129Z,-2.31
2022-12-11T22:02:54.583Z,-2.31
2022-12-11T22:05:21.052Z,-2.39
2022-12-11T22:07:47.476Z,-2.24
2022-12-11T22:10:13.999Z,-2.24
2022-12-11T22:12:40.447Z,-2.23
2022-12-11T22:15:07.715Z,-2.23
2022-12-11T22:17:34.139Z,-2.19
2022-12-11T22:20:00.496Z,-2.19
2022-12-11T22:22:26.858Z,-2.22
2022-12-11T22:24:53.207Z,-2.30
2022-12-11T22:27:23.609Z,-2.33
2022-12-11T22:29:50.444Z,-2.33
2022-12-11T22:32:16.839Z,-2.29
2022-12-11T22:34:43.214Z,-2.33
2022-12-11T22:37:09.584Z,-2.33
2022-12-11T22:39:35.921Z,-2.26
2022-12-11T22:42:02.269Z,-2.25
2022-12-11T22:44:28.636Z,-2.23
2022-12-11T22:46:54.985Z,-2.17
2022-12-11T22:49:21.377Z,-2.27
2022-12-11T22:51:48.086Z,-2.26
2022-12-11T22:54:14.505Z,-2.20
2022-12-11T22:56:40.957Z,-2.25
2022-12-11T22:59:07.527Z,-2.35
2022-12-11T23:01:34.167Z,-2.26
2022-12-11T23:04:00.639Z,-2.31
2022-12-11T23:06:27.144Z,-2.25
2022-12-11T23:08:56.785Z,-2.24
2022-12-11T23:11:36.305Z,-2.32
2022-12-11T23:14:04.757Z,-2.39
2022-12-11T23:16:31.351Z,-2.30
2022-12-11T23:18:58.375Z,-2.29
2022-12-11T23:21:26.601Z,-2.42
2022-12-11T23:23:54.054Z,-2.30
2022-12-11T23:26:20.862Z,-2.31
2022-12-11T23:28:47.768Z,-2.25
2022-12-11T23:31:14.478Z,-2.29
2022-12-11T23:33:40.974Z,-2.28
2022-12-11T23:36:08.880Z,-2.27
2022-12-11T23:38:35.519Z,-2.32
2022-12-11T23:41:03.022Z,-2.34
2022-12-11T23:43:29.460Z,-2.35
2022-12-11T23:45:55.966Z,-2.27
2022-12-11T23:48:22.465Z,-2.26
2022-12-11T23:50:48.835Z,-2.36
2022-12-11T23:53:15.520Z,-2.37
2022-12-11T23:55:44.687Z,-2.33
2022-12-11T23:58:11.765Z,-2.32
